Dunav 8 — YP2566 — position and weather

sailwx.info

Track history (hours):
 
Tides and Currents Weather Stations Pressure Air Temp Water Temp Dewpoint Dewpoint Depression Visibility Wind Speed Wind Dir Waves Ship Positions

Dunav 8

Last reported at 2017-Dec-09 17:12 UTC. Time now 2017-Dec-12 23:40 UTC.
Position N 44°19' E 028°03'.

Length 67 m.

MMSI: 264162566.

Date/timePositionNaut miles runAvg speedWind from/ knotsBaromVisibWave heightAir tempDewpointWater temp
2017-Dec-09 17:12N 44°19' E 028°03'1 2.8
2017-Dec-09 16:50N 44°18' E 028°04'1 3.4
2017-Dec-09 16:30N 44°17' E 028°05'1 2.8
2017-Dec-09 16:01N 44°16' E 028°07'2 3.3
2017-Dec-09 15:30N 44°16' E 028°09'2 3.4
2017-Dec-09 15:00N 44°16' E 028°11'2 3.3
2017-Dec-09 14:31N 44°15' E 028°13'2 3.3
2017-Dec-09 14:00N 44°15' E 028°16'2 3.4
2017-Dec-09 13:30N 44°15' E 028°18'2 3.3
2017-Dec-09 13:00N 44°15' E 028°20'2 3.3
2017-Dec-09 12:31N 44°14' E 028°22'2 3.4
2017-Dec-09 12:01N 44°12' E 028°23'2 3.4
2017-Dec-09 11:31N 44°11' E 028°24'0 0.4
2017-Dec-09 11:00N 44°11' E 028°24'0 0.0
2017-Dec-09 10:31N 44°11' E 028°24'0 0.0
2017-Dec-09 10:00N 44°11' E 028°24'0 0.0
2017-Dec-09 09:31N 44°11' E 028°24'0 0.0
2017-Dec-09 09:01N 44°11' E 028°24'0 0.0
2017-Dec-09 08:31N 44°11' E 028°24'0 0.0
2017-Dec-09 08:01N 44°11' E 028°24'0 0.1
2017-Dec-09 07:30N 44°11' E 028°24'0 0.0
2017-Dec-09 07:01N 44°11' E 028°24'0 0.0
2017-Dec-09 06:30N 44°11' E 028°24'0 0.1
2017-Dec-09 06:00N 44°11' E 028°24'0 0.0
2017-Dec-09 05:31N 44°11' E 028°24'0 0.0
2017-Dec-09 05:00N 44°11' E 028°24'0 0.0
2017-Dec-09 04:31N 44°11' E 028°24'0 0.0
2017-Dec-09 04:01N 44°11' E 028°24'0 0.0
2017-Dec-09 03:31N 44°11' E 028°24'0 0.0
2017-Dec-09 03:01N 44°11' E 028°24'0 0.0
2017-Dec-09 02:31N 44°11' E 028°24'0 0.0
2017-Dec-09 02:01N 44°11' E 028°24'0 0.0
2017-Dec-09 01:31N 44°11' E 028°24'0 0.0
2017-Dec-09 01:01N 44°11' E 028°24'0 0.0
2017-Dec-09 00:31N 44°11' E 028°24'0 0.0
2017-Dec-09 00:00N 44°11' E 028°24'0 0.0
2017-Dec-08 23:31N 44°11' E 028°24'0 0.0
2017-Dec-08 23:00N 44°11' E 028°24'0 0.0
2017-Dec-08 22:31N 44°11' E 028°24'0 0.0
2017-Dec-08 22:01N 44°11' E 028°24'0 0.0
2017-Dec-08 21:30N 44°11' E 028°24'0 0.0
2017-Dec-08 21:00N 44°11' E 028°24'0 0.0
2017-Dec-08 20:31N 44°11' E 028°24'0 0.0
2017-Dec-08 20:00N 44°11' E 028°24'0 0.0
2017-Dec-08 19:30N 44°11' E 028°24'0 0.0
2017-Dec-08 19:01N 44°11' E 028°24'0 0.0
2017-Dec-08 18:31N 44°11' E 028°24'0 0.0
2017-Dec-08 18:00N 44°11' E 028°24'1 1.7
2017-Dec-08 17:29N 44°11' E 028°24'1 2.7
2017-Dec-08 17:01N 44°13' E 028°23'1 2.7
2017-Dec-08 16:30N 44°14' E 028°22'1 2.8
2017-Dec-08 16:01N 44°15' E 028°21'1 2.8
2017-Dec-08 15:30N 44°15' E 028°19'1 2.7
2017-Dec-08 15:00N 44°15' E 028°17'1 2.7
2017-Dec-08 14:31N 44°15' E 028°15'1 2.7
2017-Dec-08 14:01N 44°15' E 028°13'1 2.7
2017-Dec-08 13:30N 44°16' E 028°11'2 2.7
2017-Dec-08 12:54N 44°16' E 028°09'1 2.6
2017-Dec-08 12:31N 44°16' E 028°08'1 2.7
2017-Dec-08 12:00N 44°16' E 028°06'2 2.8
2017-Dec-08 11:25N 44°17' E 028°04'  
2017-Dec-04 10:21N 44°16' E 028°08'1 2.8
2017-Dec-04 09:58N 44°16' E 028°06'  
2017-Nov-30 15:28N 44°17' E 028°04'2 3.3
2017-Nov-30 14:59N 44°16' E 028°06'2 3.4
2017-Nov-30 14:30N 44°16' E 028°08'2 3.4
2017-Nov-30 14:00N 44°16' E 028°11'2 3.4
2017-Nov-30 13:30N 44°15' E 028°13'2 3.5
2017-Nov-30 13:00N 44°15' E 028°15'2 3.5
2017-Nov-30 12:30N 44°15' E 028°18'2 3.4
2017-Nov-30 12:00N 44°15' E 028°20'2 3.2
2017-Nov-30 11:30N 44°14' E 028°22'2 3.3
2017-Nov-30 11:00N 44°13' E 028°23'2 3.4
2017-Nov-30 10:30N 44°11' E 028°24'0 0.8
2017-Nov-30 10:00N 44°11' E 028°24'0 0.0
2017-Nov-30 09:30N 44°11' E 028°24'0 0.0
2017-Nov-30 09:00N 44°11' E 028°24'0 0.0
2017-Nov-30 08:30N 44°11' E 028°24'0 0.0
2017-Nov-30 08:00N 44°11' E 028°24'0 0.0
2017-Nov-30 07:30N 44°11' E 028°24'0 0.1
2017-Nov-30 07:00N 44°11' E 028°24'0 0.1
2017-Nov-30 06:30N 44°11' E 028°24'0 0.0
2017-Nov-30 06:00N 44°11' E 028°24'0 0.1
2017-Nov-30 05:30N 44°11' E 028°24'0 0.0
2017-Nov-30 05:00N 44°11' E 028°24'0 0.0
2017-Nov-30 04:30N 44°11' E 028°24'0 0.0
2017-Nov-30 04:00N 44°11' E 028°24'0 0.0
2017-Nov-30 03:30N 44°11' E 028°24'0 0.0
2017-Nov-30 03:00N 44°11' E 028°24'0 0.0
2017-Nov-30 02:30N 44°11' E 028°24'0 0.0
2017-Nov-30 02:00N 44°11' E 028°24'0 0.0
2017-Nov-30 01:30N 44°11' E 028°24'0 0.0
2017-Nov-30 01:00N 44°11' E 028°24'0 0.0
2017-Nov-30 00:30N 44°11' E 028°24'0 0.0
2017-Nov-30 00:00N 44°11' E 028°24'0 0.0
2017-Nov-29 23:30N 44°11' E 028°24'0 0.0
2017-Nov-29 23:00N 44°11' E 028°24'0 0.0
2017-Nov-29 22:30N 44°11' E 028°24'0 0.0
2017-Nov-29 22:00N 44°11' E 028°24'0 0.0
2017-Nov-29 21:30N 44°11' E 028°24'0 0.0
2017-Nov-29 21:00N 44°11' E 028°24'0 0.0
2017-Nov-29 20:30N 44°11' E 028°24'0 0.0
2017-Nov-29 20:00N 44°11' E 028°24'0 0.0
2017-Nov-29 19:30N 44°11' E 028°24'0 0.0
2017-Nov-29 19:00N 44°11' E 028°24'0 0.0
2017-Nov-29 18:30N 44°11' E 028°24'0 0.0
2017-Nov-29 18:00N 44°11' E 028°24'0 0.0
2017-Nov-29 17:30N 44°11' E 028°24'  
Track history (hours):
 
Tides and Currents Weather Stations Pressure Air Temp Water Temp Dewpoint Dewpoint Depression Visibility Wind Speed Wind Dir Waves Ship Positions

Dunav 8

Last reported at 2017-Dec-09 17:12 UTC. Time now 2017-Dec-12 23:40 UTC.
Position N 44°19' E 028°03'.

Length 67 m.

MMSI: 264162566.

Date/timePositionNaut miles runAvg speedWind from/ knotsBaromVisibWave heightAir tempDewpointWater temp
2017-Dec-09 17:12N 44°19' E 028°03'1 2.8
2017-Dec-09 16:50N 44°18' E 028°04'1 3.4
2017-Dec-09 16:30N 44°17' E 028°05'1 2.8
2017-Dec-09 16:01N 44°16' E 028°07'2 3.3
2017-Dec-09 15:30N 44°16' E 028°09'2 3.4
2017-Dec-09 15:00N 44°16' E 028°11'2 3.3
2017-Dec-09 14:31N 44°15' E 028°13'2 3.3
2017-Dec-09 14:00N 44°15' E 028°16'2 3.4
2017-Dec-09 13:30N 44°15' E 028°18'2 3.3
2017-Dec-09 13:00N 44°15' E 028°20'2 3.3
2017-Dec-09 12:31N 44°14' E 028°22'2 3.4
2017-Dec-09 12:01N 44°12' E 028°23'2 3.4
2017-Dec-09 11:31N 44°11' E 028°24'0 0.4
2017-Dec-09 11:00N 44°11' E 028°24'0 0.0
2017-Dec-09 10:31N 44°11' E 028°24'0 0.0
2017-Dec-09 10:00N 44°11' E 028°24'0 0.0
2017-Dec-09 09:31N 44°11' E 028°24'0 0.0
2017-Dec-09 09:01N 44°11' E 028°24'0 0.0
2017-Dec-09 08:31N 44°11' E 028°24'0 0.0
2017-Dec-09 08:01N 44°11' E 028°24'0 0.1
2017-Dec-09 07:30N 44°11' E 028°24'0 0.0
2017-Dec-09 07:01N 44°11' E 028°24'0 0.0
2017-Dec-09 06:30N 44°11' E 028°24'0 0.1
2017-Dec-09 06:00N 44°11' E 028°24'0 0.0
2017-Dec-09 05:31N 44°11' E 028°24'0 0.0
2017-Dec-09 05:00N 44°11' E 028°24'0 0.0
2017-Dec-09 04:31N 44°11' E 028°24'0 0.0
2017-Dec-09 04:01N 44°11' E 028°24'0 0.0
2017-Dec-09 03:31N 44°11' E 028°24'0 0.0
2017-Dec-09 03:01N 44°11' E 028°24'0 0.0
2017-Dec-09 02:31N 44°11' E 028°24'0 0.0
2017-Dec-09 02:01N 44°11' E 028°24'0 0.0
2017-Dec-09 01:31N 44°11' E 028°24'0 0.0
2017-Dec-09 01:01N 44°11' E 028°24'0 0.0
2017-Dec-09 00:31N 44°11' E 028°24'0 0.0
2017-Dec-09 00:00N 44°11' E 028°24'0 0.0
2017-Dec-08 23:31N 44°11' E 028°24'0 0.0
2017-Dec-08 23:00N 44°11' E 028°24'0 0.0
2017-Dec-08 22:31N 44°11' E 028°24'0 0.0
2017-Dec-08 22:01N 44°11' E 028°24'0 0.0
2017-Dec-08 21:30N 44°11' E 028°24'0 0.0
2017-Dec-08 21:00N 44°11' E 028°24'0 0.0
2017-Dec-08 20:31N 44°11' E 028°24'0 0.0
2017-Dec-08 20:00N 44°11' E 028°24'0 0.0
2017-Dec-08 19:30N 44°11' E 028°24'0 0.0
2017-Dec-08 19:01N 44°11' E 028°24'0 0.0
2017-Dec-08 18:31N 44°11' E 028°24'0 0.0
2017-Dec-08 18:00N 44°11' E 028°24'1 1.7
2017-Dec-08 17:29N 44°11' E 028°24'1 2.7
2017-Dec-08 17:01N 44°13' E 028°23'1 2.7
2017-Dec-08 16:30N 44°14' E 028°22'1 2.8
2017-Dec-08 16:01N 44°15' E 028°21'1 2.8
2017-Dec-08 15:30N 44°15' E 028°19'1 2.7
2017-Dec-08 15:00N 44°15' E 028°17'1 2.7
2017-Dec-08 14:31N 44°15' E 028°15'1 2.7
2017-Dec-08 14:01N 44°15' E 028°13'1 2.7
2017-Dec-08 13:30N 44°16' E 028°11'2 2.7
2017-Dec-08 12:54N 44°16' E 028°09'1 2.6
2017-Dec-08 12:31N 44°16' E 028°08'1 2.7
2017-Dec-08 12:00N 44°16' E 028°06'2 2.8
2017-Dec-08 11:25N 44°17' E 028°04'  
2017-Dec-04 10:21N 44°16' E 028°08'1 2.8
2017-Dec-04 09:58N 44°16' E 028°06'  
2017-Nov-30 15:28N 44°17' E 028°04'2 3.3
2017-Nov-30 14:59N 44°16' E 028°06'2 3.4
2017-Nov-30 14:30N 44°16' E 028°08'2 3.4
2017-Nov-30 14:00N 44°16' E 028°11'2 3.4
2017-Nov-30 13:30N 44°15' E 028°13'2 3.5
2017-Nov-30 13:00N 44°15' E 028°15'2 3.5
2017-Nov-30 12:30N 44°15' E 028°18'2 3.4
2017-Nov-30 12:00N 44°15' E 028°20'2 3.2
2017-Nov-30 11:30N 44°14' E 028°22'2 3.3
2017-Nov-30 11:00N 44°13' E 028°23'2 3.4
2017-Nov-30 10:30N 44°11' E 028°24'0 0.8
2017-Nov-30 10:00N 44°11' E 028°24'0 0.0
2017-Nov-30 09:30N 44°11' E 028°24'0 0.0
2017-Nov-30 09:00N 44°11' E 028°24'0 0.0
2017-Nov-30 08:30N 44°11' E 028°24'0 0.0
2017-Nov-30 08:00N 44°11' E 028°24'0 0.0
2017-Nov-30 07:30N 44°11' E 028°24'0 0.1
2017-Nov-30 07:00N 44°11' E 028°24'0 0.1
2017-Nov-30 06:30N 44°11' E 028°24'0 0.0
2017-Nov-30 06:00N 44°11' E 028°24'0 0.1
2017-Nov-30 05:30N 44°11' E 028°24'0 0.0
2017-Nov-30 05:00N 44°11' E 028°24'0 0.0
2017-Nov-30 04:30N 44°11' E 028°24'0 0.0
2017-Nov-30 04:00N 44°11' E 028°24'0 0.0
2017-Nov-30 03:30N 44°11' E 028°24'0 0.0
2017-Nov-30 03:00N 44°11' E 028°24'0 0.0
2017-Nov-30 02:30N 44°11' E 028°24'0 0.0
2017-Nov-30 02:00N 44°11' E 028°24'0 0.0
2017-Nov-30 01:30N 44°11' E 028°24'0 0.0
2017-Nov-30 01:00N 44°11' E 028°24'0 0.0
2017-Nov-30 00:30N 44°11' E 028°24'0 0.0
2017-Nov-30 00:00N 44°11' E 028°24'0 0.0
2017-Nov-29 23:30N 44°11' E 028°24'0 0.0
2017-Nov-29 23:00N 44°11' E 028°24'0 0.0
2017-Nov-29 22:30N 44°11' E 028°24'0 0.0
2017-Nov-29 22:00N 44°11' E 028°24'0 0.0
2017-Nov-29 21:30N 44°11' E 028°24'0 0.0
2017-Nov-29 21:00N 44°11' E 028°24'0 0.0
2017-Nov-29 20:30N 44°11' E 028°24'0 0.0
2017-Nov-29 20:00N 44°11' E 028°24'0 0.0
2017-Nov-29 19:30N 44°11' E 028°24'0 0.0
2017-Nov-29 19:00N 44°11' E 028°24'0 0.0
2017-Nov-29 18:30N 44°11' E 028°24'0 0.0
2017-Nov-29 18:00N 44°11' E 028°24'0 0.0
2017-Nov-29 17:30N 44°11' E 028°24'  

Dump ship's entire track history